Time;durP1;ratioP1;P1;durP2;ratioP2;P2;SDS_P1;SDS_P2;PMS_P1;PMS_P2;Temp;Humidity;BMP_temperature;BMP_pressure;BME280_temperature;BME280_humidity;BME280_pressure;Samples;Min_cycle;Max_cycle;Signal;HPM_P1;HPM_P2
2023/05/28 00:00:47;;;;;;;1.10;1.10;;;26.50;60.90;;;;;;5047379;28;20485;-64
2023/05/28 00:03:17;;;;;;;1.00;1.00;;;26.50;60.90;;;;;;5052419;28;20445;-63
2023/05/28 00:05:47;;;;;;;1.40;1.30;;;26.50;60.90;;;;;;5051636;28;20465;-64
2023/05/28 00:08:15;;;;;;;1.30;1.20;;;26.50;60.90;;;;;;5032217;28;20450;-63
2023/05/28 00:10:44;;;;;;;1.00;1.00;;;26.50;61.00;;;;;;5035104;28;20512;-63
2023/05/28 00:13:12;;;;;;;1.30;1.20;;;26.50;61.00;;;;;;5052025;28;20470;-64
2023/05/28 00:15:40;;;;;;;1.47;1.37;;;26.40;61.00;;;;;;5050656;28;20477;-64
2023/05/28 00:18:11;;;;;;;1.30;1.20;;;26.40;61.00;;;;;;5052656;28;20443;-64
2023/05/28 00:20:40;;;;;;;1.37;1.30;;;26.40;61.00;;;;;;5051998;28;20470;-64
2023/05/28 00:23:10;;;;;;;1.57;1.47;;;26.40;61.00;;;;;;5051774;28;20892;-63
2023/05/28 00:25:38;;;;;;;1.23;1.23;;;26.40;61.00;;;;;;5051983;28;20447;-64
2023/05/28 00:28:07;;;;;;;1.27;1.27;;;26.40;61.10;;;;;;5068493;28;20485;-65
2023/05/28 00:30:35;;;;;;;1.07;1.07;;;26.40;61.20;;;;;;5069342;28;20510;-64
2023/05/28 00:33:03;;;;;;;1.40;1.30;;;26.40;61.10;;;;;;5070755;28;20485;-64
2023/05/28 00:35:32;;;;;;;1.03;0.93;;;26.40;61.20;;;;;;5071492;28;20920;-64
2023/05/28 00:38:00;;;;;;;1.00;0.90;;;26.40;61.20;;;;;;5069370;28;20459;-64
2023/05/28 00:40:29;;;;;;;1.10;1.10;;;26.40;61.20;;;;;;5071696;28;20422;-63
2023/05/28 00:42:57;;;;;;;1.10;1.10;;;26.40;61.20;;;;;;5068915;28;20544;-63
2023/05/28 00:45:26;;;;;;;1.07;1.07;;;26.40;61.20;;;;;;5070413;28;20437;-63
2023/05/28 00:47:54;;;;;;;1.30;1.27;;;26.40;61.20;;;;;;5072538;28;20483;-63
2023/05/28 00:50:25;;;;;;;1.30;1.20;;;26.30;61.30;;;;;;5055143;28;20452;-64
2023/05/28 00:52:54;;;;;;;1.23;1.23;;;26.40;61.30;;;;;;5065846;28;20472;-63
2023/05/28 00:55:23;;;;;;;0.90;0.90;;;26.30;61.30;;;;;;5060255;28;20459;-63
2023/05/28 00:57:55;;;;;;;1.50;1.40;;;26.30;61.30;;;;;;5040774;28;20457;-65
2023/05/28 01:00:24;;;;;;;0.97;0.97;;;26.30;61.30;;;;;;5052446;28;20507;-64
2023/05/28 01:02:53;;;;;;;1.03;1.00;;;26.30;61.30;;;;;;5071501;28;20933;-63
2023/05/28 01:05:22;;;;;;;1.33;1.23;;;26.30;61.40;;;;;;5070949;28;20503;-65
2023/05/28 01:07:51;;;;;;;1.17;1.17;;;26.30;61.40;;;;;;5053473;28;20462;-63
2023/05/28 01:10:20;;;;;;;1.07;1.07;;;26.30;61.30;;;;;;5071369;28;20852;-63
2023/05/28 01:12:50;;;;;;;1.10;1.00;;;26.30;61.40;;;;;;5071154;28;20470;-64
2023/05/28 01:15:20;;;;;;;1.10;1.10;;;26.30;61.40;;;;;;5052231;28;20476;-64
2023/05/28 01:17:49;;;;;;;1.50;1.40;;;26.30;61.40;;;;;;5049541;28;20461;-64
2023/05/28 01:20:17;;;;;;;1.30;1.20;;;26.30;61.40;;;;;;5053105;28;20456;-63
2023/05/28 01:22:53;;;;;;;1.43;1.33;;;26.30;61.40;;;;;;5052964;28;20456;-63
2023/05/28 01:25:23;;;;;;;1.27;1.17;;;26.30;61.40;;;;;;5052876;28;20484;-64
2023/05/28 01:27:52;;;;;;;1.40;1.33;;;26.30;61.40;;;;;;5052683;28;20516;-64
2023/05/28 01:30:21;;;;;;;1.30;1.20;;;26.30;61.40;;;;;;5052125;28;20539;-64
2023/05/28 01:32:50;;;;;;;0.80;0.80;;;26.20;61.40;;;;;;5070375;28;20452;-63
2023/05/28 01:35:18;;;;;;;1.17;1.17;;;26.20;61.50;;;;;;5070621;28;20507;-64
2023/05/28 01:37:50;;;;;;;1.37;1.10;;;26.20;61.50;;;;;;5052129;28;20499;-65
2023/05/28 01:40:20;;;;;;;1.20;1.20;;;26.20;61.50;;;;;;5052827;28;20528;-64
2023/05/28 01:42:55;;;;;;;1.20;1.10;;;26.20;61.50;;;;;;5052620;28;21003;-63
2023/05/28 01:45:24;;;;;;;1.37;1.27;;;26.20;61.50;;;;;;5052175;28;20452;-64
2023/05/28 01:47:53;;;;;;;1.20;1.10;;;26.20;61.50;;;;;;5053051;28;20837;-64
2023/05/28 01:50:22;;;;;;;1.40;1.30;;;26.20;61.50;;;;;;5053019;28;20461;-66
2023/05/28 01:52:50;;;;;;;0.87;0.87;;;26.20;61.50;;;;;;5071450;28;20422;-64
2023/05/28 01:55:18;;;;;;;0.90;0.90;;;26.20;61.50;;;;;;5069489;28;20523;-64
2023/05/28 01:57:47;;;;;;;1.37;1.27;;;26.20;61.50;;;;;;5051922;28;20589;-64
2023/05/28 02:00:17;;;;;;;1.30;1.20;;;26.10;61.60;;;;;;5041611;28;20980;-64
2023/05/28 02:02:46;;;;;;;1.03;1.03;;;26.20;61.60;;;;;;5075164;28;20456;-64
2023/05/28 02:05:17;;;;;;;1.30;1.20;;;26.10;61.60;;;;;;5056062;28;20461;-63
2023/05/28 02:07:46;;;;;;;1.00;1.00;;;26.10;61.60;;;;;;5074277;28;20454;-63
2023/05/28 02:10:15;;;;;;;1.30;1.20;;;26.10;61.60;;;;;;5038168;28;20458;-63
2023/05/28 02:12:44;;;;;;;1.10;1.10;;;26.10;61.60;;;;;;5037072;28;20465;-63
2023/05/28 02:15:13;;;;;;;1.10;1.10;;;26.10;61.60;;;;;;5055399;28;20482;-63
2023/05/28 02:17:43;;;;;;;1.27;1.17;;;26.10;61.60;;;;;;5056532;28;20461;-64
2023/05/28 02:20:12;;;;;;;0.97;0.93;;;26.10;61.70;;;;;;5056484;28;20453;-64
2023/05/28 02:22:42;;;;;;;1.00;1.00;;;26.10;61.70;;;;;;5055968;28;20457;-64
2023/05/28 02:25:10;;;;;;;1.27;1.23;;;26.10;61.70;;;;;;5073565;28;20479;-64
2023/05/28 02:27:39;;;;;;;1.00;1.00;;;26.10;61.70;;;;;;5056251;28;20564;-64
2023/05/28 02:30:10;;;;;;;1.00;0.90;;;26.10;61.70;;;;;;5055816;28;20456;-64
2023/05/28 02:32:38;;;;;;;1.10;1.10;;;26.10;61.70;;;;;;5056117;28;20480;-64
2023/05/28 02:35:09;;;;;;;1.73;1.63;;;26.10;61.70;;;;;;5074190;28;20952;-63
2023/05/28 02:37:37;;;;;;;1.27;1.20;;;26.10;61.70;;;;;;5056082;28;20461;-63
2023/05/28 02:40:07;;;;;;;1.30;1.20;;;26.10;61.70;;;;;;5074192;28;20420;-63
2023/05/28 02:42:35;;;;;;;0.93;0.93;;;26.00;61.70;;;;;;5073924;28;20429;-64
2023/05/28 02:45:04;;;;;;;1.30;1.20;;;26.00;61.80;;;;;;5072499;28;20919;-64
2023/05/28 02:47:32;;;;;;;1.23;1.20;;;26.00;61.80;;;;;;5055381;28;20961;-64
2023/05/28 02:50:01;;;;;;;1.37;1.27;;;26.00;61.80;;;;;;5066829;28;21095;-64
2023/05/28 02:52:40;;;;;;;1.03;0.97;;;26.00;61.80;;;;;;5053987;28;20988;-63
2023/05/28 02:55:08;;;;;;;1.30;1.20;;;26.00;61.80;;;;;;5055369;28;20987;-63
2023/05/28 02:57:37;;;;;;;1.27;1.17;;;26.00;61.80;;;;;;5053997;28;20466;-64
2023/05/28 03:00:09;;;;;;;0.90;0.90;;;26.00;61.80;;;;;;5050096;28;20471;-64
2023/05/28 03:02:37;;;;;;;1.23;1.20;;;26.00;61.80;;;;;;5040977;28;20968;-64
2023/05/28 03:05:07;;;;;;;1.30;1.30;;;26.00;61.80;;;;;;5052106;28;20800;-64
2023/05/28 03:07:35;;;;;;;1.10;1.07;;;26.00;61.90;;;;;;5055288;28;20966;-64
2023/05/28 03:10:06;;;;;;;1.00;1.00;;;26.00;61.90;;;;;;5063034;28;20463;-63
2023/05/28 03:12:36;;;;;;;1.40;1.40;;;26.00;61.90;;;;;;5055819;28;20956;-63
2023/05/28 03:15:05;;;;;;;1.00;1.00;;;26.00;61.90;;;;;;5054702;28;20488;-64
2023/05/28 03:17:34;;;;;;;1.27;1.20;;;26.00;61.90;;;;;;5055807;28;20457;-63
2023/05/28 03:20:03;;;;;;;1.13;1.13;;;26.00;61.90;;;;;;5055015;28;20538;-64
2023/05/28 03:22:33;;;;;;;0.93;0.93;;;26.00;61.90;;;;;;5071840;28;20836;-64
2023/05/28 03:25:01;;;;;;;1.30;1.20;;;26.00;61.90;;;;;;5054499;28;20457;-64
2023/05/28 03:27:30;;;;;;;1.20;1.10;;;25.90;61.90;;;;;;5055132;28;20515;-64
2023/05/28 03:29:59;;;;;;;1.40;1.30;;;25.90;61.90;;;;;;5054533;28;20468;-64
2023/05/28 03:32:47;;;;;;;1.27;1.17;;;25.90;61.90;;;;;;5072564;28;20844;-65
2023/05/28 03:35:16;;;;;;;1.00;1.00;;;25.90;62.00;;;;;;5054002;28;20468;-64
2023/05/28 03:37:45;;;;;;;1.17;1.17;;;25.90;62.00;;;;;;5053866;28;20552;-65
2023/05/28 03:40:13;;;;;;;1.20;1.20;;;25.90;62.00;;;;;;5054602;28;20515;-64
2023/05/28 03:42:43;;;;;;;1.03;1.03;;;25.90;62.00;;;;;;5054807;28;20844;-64
2023/05/28 03:49:11;;;;;;;1.10;1.00;;;25.90;62.00;;;;;;5072058;28;20407;-63
2023/05/28 03:51:40;;;;;;;0.87;0.87;;;25.90;62.10;;;;;;5059245;28;20449;-65
2023/05/28 03:54:08;;;;;;;1.40;1.30;;;25.90;62.00;;;;;;5071757;28;20881;-64
2023/05/28 03:56:36;;;;;;;1.03;1.03;;;25.90;62.00;;;;;;5054149;28;20551;-65
2023/05/28 03:59:08;;;;;;;1.00;1.00;;;25.90;62.10;;;;;;5070988;28;20898;-64
2023/05/28 04:01:36;;;;;;;1.47;1.37;;;25.90;62.10;;;;;;5055024;28;20465;-64
2023/05/28 04:04:10;;;;;;;1.43;1.33;;;25.90;62.10;;;;;;5054208;28;20452;-64
2023/05/28 04:06:38;;;;;;;1.47;1.37;;;25.90;62.00;;;;;;5055095;28;20850;-64
2023/05/28 04:09:10;;;;;;;1.33;1.23;;;25.90;62.00;;;;;;5053843;28;20460;-65
2023/05/28 04:11:38;;;;;;;1.40;1.30;;;25.90;62.00;;;;;;5054838;28;20506;-64
2023/05/28 04:14:14;;;;;;;1.53;1.43;;;25.90;62.00;;;;;;5053656;28;20471;-65
2023/05/28 04:16:42;;;;;;;1.27;1.17;;;25.90;62.00;;;;;;5054229;28;20465;-66
2023/05/28 04:19:12;;;;;;;1.17;1.10;;;25.90;62.00;;;;;;5072137;28;20507;-64
2023/05/28 04:21:41;;;;;;;0.97;0.97;;;25.90;62.10;;;;;;5052653;28;20461;-64
2023/05/28 04:24:09;;;;;;;1.07;1.07;;;25.90;62.00;;;;;;5054094;28;20526;-64
2023/05/28 04:26:37;;;;;;;1.27;1.17;;;25.90;62.00;;;;;;5071663;28;20889;-63
2023/05/28 04:29:06;;;;;;;0.90;0.90;;;25.90;62.00;;;;;;5070227;28;20464;-64
2023/05/28 04:31:35;;;;;;;1.37;1.27;;;25.90;62.00;;;;;;5053901;28;20482;-64
2023/05/28 04:34:04;;;;;;;0.80;0.80;;;25.90;62.00;;;;;;5053879;28;20957;-65
2023/05/28 04:36:32;;;;;;;1.20;1.10;;;25.90;62.00;;;;;;5053022;28;20576;-63
2023/05/28 04:39:03;;;;;;;1.17;1.17;;;25.90;62.00;;;;;;5053641;28;20565;-64
2023/05/28 04:41:31;;;;;;;1.37;1.20;;;25.90;62.00;;;;;;5071904;28;20537;-64
2023/05/28 04:43:59;;;;;;;1.20;1.10;;;25.90;62.00;;;;;;5051572;28;20461;-65
2023/05/28 04:46:29;;;;;;;1.13;1.13;;;25.90;62.00;;;;;;5051964;28;20824;-63
2023/05/28 04:49:00;;;;;;;1.40;1.30;;;25.90;62.00;;;;;;5054307;28;20815;-64
2023/05/28 04:51:31;;;;;;;1.27;1.17;;;25.90;62.00;;;;;;5053507;28;20523;-63
2023/05/28 04:54:00;;;;;;;1.27;1.27;;;25.90;62.00;;;;;;5072143;28;20439;-63
2023/05/28 04:56:28;;;;;;;1.03;1.03;;;25.90;62.00;;;;;;5071236;28;20469;-63
2023/05/28 04:58:57;;;;;;;1.40;1.30;;;25.90;62.00;;;;;;5069830;28;20933;-63
2023/05/28 05:01:26;;;;;;;1.37;1.27;;;25.90;62.00;;;;;;5050602;28;20506;-64
2023/05/28 05:03:56;;;;;;;1.20;1.10;;;25.90;62.00;;;;;;5051560;28;20503;-63
2023/05/28 05:06:25;;;;;;;1.20;1.10;;;25.90;62.00;;;;;;5062169;28;20562;-64
2023/05/28 05:08:54;;;;;;;1.00;1.00;;;25.90;62.00;;;;;;5062613;28;20501;-63
2023/05/28 05:11:23;;;;;;;1.57;1.47;;;25.90;62.00;;;;;;5033653;28;20519;-63
2023/05/28 05:13:51;;;;;;;1.30;1.20;;;25.90;61.90;;;;;;5050736;28;20468;-64
2023/05/28 05:16:20;;;;;;;0.90;0.90;;;25.90;62.00;;;;;;5066238;28;20468;-63
2023/05/28 05:18:48;;;;;;;1.30;1.20;;;25.90;61.90;;;;;;5070938;28;20478;-65
2023/05/28 05:21:17;;;;;;;1.20;1.20;;;25.90;61.90;;;;;;5053643;28;20465;-64
2023/05/28 05:23:46;;;;;;;1.50;1.43;;;25.90;61.90;;;;;;5071632;28;20804;-64
2023/05/28 05:26:16;;;;;;;1.50;1.40;;;25.90;61.90;;;;;;5069063;28;20831;-64
2023/05/28 05:28:45;;;;;;;1.20;1.10;;;25.90;61.90;;;;;;5050979;28;20948;-64
2023/05/28 05:31:14;;;;;;;1.03;1.03;;;25.90;61.90;;;;;;5033366;28;20469;-65
2023/05/28 05:33:43;;;;;;;1.40;1.30;;;25.90;61.90;;;;;;5037353;28;21008;-63
2023/05/28 05:36:50;;;;;;;0.90;0.90;;;25.90;61.90;;;;;;4961851;28;20472;-65
2023/05/28 05:39:57;;;;;;;0.90;0.90;;;25.90;61.90;;;;;;4969692;28;20460;-63
2023/05/28 05:42:38;;;;;;;1.00;1.00;;;25.90;61.90;;;;;;5016474;28;21026;-64
2023/05/28 05:45:09;;;;;;;1.30;1.20;;;25.90;61.90;;;;;;5036146;28;20460;-64
2023/05/28 05:47:38;;;;;;;1.00;1.00;;;25.90;61.90;;;;;;5037793;28;20504;-64
2023/05/28 05:50:07;;;;;;;1.20;1.10;;;25.90;61.90;;;;;;5036912;28;20466;-63
2023/05/28 05:52:36;;;;;;;1.30;1.20;;;25.90;61.90;;;;;;5036392;28;20504;-64
2023/05/28 05:55:07;;;;;;;1.37;1.27;;;25.90;61.90;;;;;;5037214;28;20486;-64
2023/05/28 05:57:36;;;;;;;1.17;1.07;;;25.90;61.90;;;;;;5046564;28;20561;-63
2023/05/28 06:00:08;;;;;;;1.00;1.00;;;25.90;61.90;;;;;;5016386;28;20487;-63
2023/05/28 06:02:46;;;;;;;1.23;1.13;;;25.90;61.80;;;;;;5017417;28;20553;-65
2023/05/28 06:05:33;;;;;;;1.50;1.40;;;25.90;61.80;;;;;;5050651;28;20961;-63
2023/05/28 06:08:21;;;;;;;0.83;0.83;;;26.00;61.80;;;;;;5036651;28;20468;-65
2023/05/28 06:10:58;;;;;;;1.20;1.10;;;25.90;61.80;;;;;;5034460;28;20472;-63
2023/05/28 06:13:26;;;;;;;1.40;1.30;;;26.00;61.80;;;;;;5054497;28;20461;-65
2023/05/28 06:15:55;;;;;;;1.17;1.17;;;26.00;61.80;;;;;;5034404;28;20465;-64
2023/05/28 06:18:24;;;;;;;1.50;1.40;;;26.00;61.80;;;;;;5036713;28;20535;-64
2023/05/28 06:20:52;;;;;;;1.17;1.07;;;26.00;61.80;;;;;;5026393;28;20460;-63
2023/05/28 06:23:21;;;;;;;1.37;0.90;;;26.00;61.80;;;;;;5049900;28;20501;-64
2023/05/28 06:25:50;;;;;;;1.50;1.40;;;26.00;61.80;;;;;;5053501;28;20949;-65
2023/05/28 06:28:21;;;;;;;1.10;1.10;;;26.00;61.70;;;;;;5055213;28;21015;-64
2023/05/28 06:30:49;;;;;;;1.00;1.00;;;26.00;61.70;;;;;;5055268;28;20496;-64
2023/05/28 06:33:17;;;;;;;1.43;1.33;;;26.00;61.70;;;;;;5056164;28;20507;-64
2023/05/28 06:35:46;;;;;;;1.07;1.03;;;26.00;61.70;;;;;;5056304;28;20504;-64
2023/05/28 06:38:14;;;;;;;1.20;1.20;;;26.00;61.70;;;;;;5055539;28;20500;-65
2023/05/28 06:40:43;;;;;;;1.03;1.03;;;26.00;61.70;;;;;;5048512;28;20871;-63
2023/05/28 06:43:12;;;;;;;1.27;1.17;;;26.00;61.70;;;;;;5073611;28;20441;-64
2023/05/28 06:46:10;;;;;;;1.17;1.17;;;26.00;61.70;;;;;;5052940;28;20533;-64
2023/05/28 06:48:39;;;;;;;1.07;0.97;;;26.00;61.70;;;;;;5073564;28;20514;-64
2023/05/28 06:51:07;;;;;;;1.20;1.10;;;26.00;61.70;;;;;;5056047;28;20474;-63
2023/05/28 06:53:35;;;;;;;1.03;1.03;;;26.00;61.70;;;;;;5073862;28;20441;-63
2023/05/28 06:56:04;;;;;;;1.20;1.20;;;26.00;61.70;;;;;;5055215;28;20472;-63
2023/05/28 06:58:45;;;;;;;1.10;1.10;;;26.00;61.70;;;;;;5074205;28;20550;-67
2023/05/28 07:01:33;;;;;;;1.17;1.00;;;26.00;61.60;;;;;;5069325;28;20518;-66
2023/05/28 07:04:08;;;;;;;1.47;1.33;;;26.00;61.60;;;;;;5055046;28;20526;-66
2023/05/28 07:06:42;;;;;;;1.20;1.10;;;26.00;61.60;;;;;;5056974;28;20501;-66
2023/05/28 07:09:16;;;;;;;1.40;1.23;;;26.00;61.60;;;;;;5054725;28;20949;-66
2023/05/28 07:11:44;;;;;;;1.10;1.10;;;26.00;61.60;;;;;;5055727;28;20930;-67
2023/05/28 07:14:13;;;;;;;1.10;1.10;;;26.00;61.60;;;;;;5035078;28;20478;-67
2023/05/28 07:16:42;;;;;;;2.60;1.00;;;26.00;61.60;;;;;;5066348;28;20482;-66
2023/05/28 07:19:11;;;;;;;0.90;0.90;;;26.00;61.60;;;;;;5048413;28;20543;-67
2023/05/28 07:21:39;;;;;;;1.07;1.07;;;26.00;61.60;;;;;;5071901;28;20462;-66
2023/05/28 07:24:08;;;;;;;1.10;1.10;;;26.10;61.60;;;;;;5055291;28;20536;-67
2023/05/28 07:26:37;;;;;;;1.20;1.10;;;26.10;61.60;;;;;;5052977;28;20491;-66
2023/05/28 07:29:05;;;;;;;1.20;1.20;;;26.10;61.50;;;;;;5053544;28;20461;-66
2023/05/28 07:31:35;;;;;;;1.03;1.03;;;26.10;61.60;;;;;;5073185;28;20510;-67
2023/05/28 07:34:05;;;;;;;1.60;1.50;;;26.10;61.60;;;;;;5072799;28;20489;-66
2023/05/28 07:36:34;;;;;;;1.33;1.23;;;26.10;61.50;;;;;;5055315;28;20870;-66
2023/05/28 07:39:06;;;;;;;1.10;1.10;;;26.10;61.50;;;;;;5071016;28;20545;-66
2023/05/28 07:41:36;;;;;;;1.33;1.23;;;26.10;61.50;;;;;;5054442;28;20540;-66
2023/05/28 07:44:15;;;;;;;1.20;1.20;;;26.10;61.50;;;;;;5053878;28;20559;-64
2023/05/28 07:46:43;;;;;;;1.23;1.13;;;26.10;61.50;;;;;;5053027;28;20461;-63
2023/05/28 07:49:24;;;;;;;1.33;1.27;;;26.10;61.50;;;;;;5054437;28;20555;-63
2023/05/28 07:51:53;;;;;;;1.07;1.07;;;26.10;61.50;;;;;;5055350;28;20453;-64
2023/05/28 07:54:25;;;;;;;1.30;1.30;;;26.10;61.50;;;;;;5053206;28;20530;-65
2023/05/28 07:56:54;;;;;;;1.30;1.20;;;26.10;61.50;;;;;;5053004;28;20540;-65
2023/05/28 07:59:35;;;;;;;1.00;1.00;;;26.10;61.50;;;;;;5052391;28;20465;-63
2023/05/28 08:02:04;;;;;;;0.97;0.97;;;26.10;61.50;;;;;;5054226;28;20937;-63
2023/05/28 08:04:34;;;;;;;1.00;1.00;;;26.10;61.40;;;;;;5071220;28;20462;-64
2023/05/28 08:07:03;;;;;;;1.03;1.03;;;26.10;61.40;;;;;;5072340;28;20466;-64
2023/05/28 08:09:31;;;;;;;1.40;1.30;;;26.10;61.40;;;;;;5053965;28;20515;-64
2023/05/28 08:12:01;;;;;;;1.00;1.00;;;26.10;61.40;;;;;;5072287;28;20442;-64
2023/05/28 08:14:32;;;;;;;1.10;1.10;;;26.10;61.40;;;;;;5053657;28;20507;-64
2023/05/28 08:17:06;;;;;;;0.90;0.90;;;26.10;61.40;;;;;;5071649;28;20519;-64
2023/05/28 08:19:48;;;;;;;1.20;1.10;;;26.10;61.40;;;;;;5054324;28;20465;-64
2023/05/28 08:22:36;;;;;;;1.00;1.00;;;26.10;61.40;;;;;;5054689;28;20581;-64
2023/05/28 08:25:04;;;;;;;1.20;1.20;;;26.10;61.40;;;;;;5054471;28;20457;-64
2023/05/28 08:27:34;;;;;;;0.90;0.90;;;26.10;61.40;;;;;;5053790;28;20575;-64
2023/05/28 08:30:05;;;;;;;1.40;1.30;;;26.10;61.40;;;;;;5052996;28;20538;-64
2023/05/28 08:32:41;;;;;;;0.90;0.90;;;26.10;61.30;;;;;;5055216;28;20552;-64
2023/05/28 08:35:11;;;;;;;0.97;0.87;;;26.10;61.30;;;;;;5054006;28;20867;-63
2023/05/28 08:37:39;;;;;;;0.97;0.97;;;26.10;61.30;;;;;;5053609;28;20565;-63
2023/05/28 08:40:14;;;;;;;1.10;1.10;;;26.10;61.30;;;;;;5053857;28;20495;-63
2023/05/28 08:42:43;;;;;;;0.93;0.93;;;26.20;61.30;;;;;;5053945;28;20453;-63
2023/05/28 08:45:13;;;;;;;0.93;0.93;;;26.20;61.30;;;;;;5070218;28;20547;-63
2023/05/28 08:47:46;;;;;;;1.03;1.03;;;26.10;61.30;;;;;;5053635;28;20479;-63
2023/05/28 08:50:22;;;;;;;0.90;0.90;;;26.20;61.30;;;;;;5049907;28;20795;-64
2023/05/28 08:53:03;;;;;;;0.90;0.90;;;26.20;61.30;;;;;;5053202;28;20493;-63
2023/05/28 08:55:32;;;;;;;1.30;1.30;;;26.20;61.30;;;;;;5053587;28;20507;-63
2023/05/28 08:58:12;;;;;;;1.07;0.97;;;26.20;61.30;;;;;;5050152;28;20482;-63
2023/05/28 09:00:40;;;;;;;1.10;1.10;;;26.20;61.30;;;;;;5044172;28;20473;-64
2023/05/28 09:03:27;;;;;;;1.13;1.13;;;26.20;61.30;;;;;;5069236;28;20444;-65
2023/05/28 09:06:03;;;;;;;1.33;1.23;;;26.20;61.20;;;;;;5052988;28;20473;-64
2023/05/28 09:08:31;;;;;;;1.00;1.00;;;26.20;61.20;;;;;;5067302;28;20532;-64
2023/05/28 09:11:11;;;;;;;0.87;0.87;;;26.20;61.20;;;;;;5050753;28;20885;-64
2023/05/28 09:13:43;;;;;;;0.80;0.80;;;26.20;61.20;;;;;;5033922;28;21071;-64
2023/05/28 09:16:11;;;;;;;0.90;0.90;;;26.20;61.20;;;;;;5028981;28;20453;-64
2023/05/28 09:18:43;;;;;;;1.10;1.00;;;26.20;61.20;;;;;;5052986;28;20536;-65
2023/05/28 09:21:15;;;;;;;1.20;1.20;;;26.20;61.20;;;;;;5050388;28;20528;-64
2023/05/28 09:23:45;;;;;;;1.13;1.13;;;26.20;61.20;;;;;;5053342;28;20453;-64
2023/05/28 09:26:30;;;;;;;1.50;1.40;;;26.20;61.20;;;;;;5070698;28;20497;-64
2023/05/28 09:29:13;;;;;;;1.27;1.27;;;26.20;61.20;;;;;;5052587;28;20476;-65
2023/05/28 09:31:41;;;;;;;1.50;1.20;;;26.20;61.20;;;;;;5070988;28;20435;-65
2023/05/28 09:34:10;;;;;;;0.93;0.90;;;26.20;61.20;;;;;;5063287;28;20450;-64
2023/05/28 09:36:39;;;;;;;1.30;1.20;;;26.30;61.10;;;;;;5070080;28;20455;-63
2023/05/28 09:39:09;;;;;;;0.90;0.90;;;26.30;61.10;;;;;;5070214;28;20487;-64
2023/05/28 09:41:43;;;;;;;0.90;0.90;;;26.30;61.10;;;;;;5070791;28;20446;-65
2023/05/28 09:44:12;;;;;;;1.23;1.23;;;26.30;61.10;;;;;;5068771;28;20575;-64
2023/05/28 09:46:46;;;;;;;0.93;0.93;;;26.30;61.10;;;;;;5071323;28;20529;-64
2023/05/28 09:49:15;;;;;;;0.97;0.97;;;26.30;61.10;;;;;;5071132;28;20547;-64
2023/05/28 09:51:48;;;;;;;0.80;0.80;;;26.30;61.10;;;;;;5070980;28;20497;-64
2023/05/28 09:54:18;;;;;;;1.30;1.20;;;26.30;61.10;;;;;;5070588;28;20454;-64
2023/05/28 09:56:51;;;;;;;1.20;1.20;;;26.30;61.10;;;;;;5070577;28;20453;-63
2023/05/28 09:59:25;;;;;;;0.80;0.80;;;26.30;61.20;;;;;;5069341;28;20532;-64
2023/05/28 10:01:59;;;;;;;0.93;0.93;;;26.30;61.10;;;;;;5070725;28;20426;-64
2023/05/28 10:04:34;;;;;;;1.17;1.17;;;26.30;61.10;;;;;;5070136;28;20783;-63
2023/05/28 10:07:05;;;;;;;0.97;0.97;;;26.30;61.10;;;;;;5070908;28;20441;-63
2023/05/28 10:09:35;;;;;;;1.10;1.10;;;26.30;61.10;;;;;;5067038;28;20455;-63
2023/05/28 10:12:10;;;;;;;1.40;1.30;;;26.30;61.10;;;;;;5070545;28;21025;-64
2023/05/28 10:14:39;;;;;;;1.07;1.07;;;26.30;61.00;;;;;;5065020;28;20454;-64
2023/05/28 10:17:09;;;;;;;0.90;0.90;;;26.30;61.00;;;;;;5070516;28;20446;-64
2023/05/28 10:19:38;;;;;;;0.90;0.90;;;26.30;61.00;;;;;;5073415;28;20958;-64
2023/05/28 10:22:08;;;;;;;1.43;1.33;;;26.30;61.00;;;;;;5074548;28;20721;-65
2023/05/28 10:24:37;;;;;;;0.90;0.90;;;26.30;61.00;;;;;;5074255;28;20443;-64
2023/05/28 10:27:06;;;;;;;1.00;1.00;;;26.30;61.00;;;;;;5074062;28;20499;-63
2023/05/28 10:29:42;;;;;;;1.10;1.03;;;26.30;61.00;;;;;;5072582;28;20926;-63
2023/05/28 10:32:10;;;;;;;0.73;0.73;;;26.30;61.00;;;;;;5073807;28;20455;-63
2023/05/28 10:34:38;;;;;;;0.90;0.90;;;26.40;60.90;;;;;;5073749;28;20439;-64
2023/05/28 10:37:10;;;;;;;0.83;0.83;;;26.40;61.00;;;;;;5074126;28;20981;-64
2023/05/28 10:39:39;;;;;;;1.00;0.87;;;26.40;60.90;;;;;;5073845;28;20466;-63
2023/05/28 10:42:09;;;;;;;1.33;1.23;;;26.40;60.90;;;;;;5073607;28;20453;-64
2023/05/28 10:44:51;;;;;;;0.83;0.83;;;26.40;60.90;;;;;;5073137;28;20545;-64
2023/05/28 10:47:19;;;;;;;0.83;0.83;;;26.40;60.90;;;;;;5073986;28;20443;-63
2023/05/28 10:50:02;;;;;;;0.80;0.80;;;26.40;60.90;;;;;;5074272;28;20433;-64
2023/05/28 10:53:03;;;;;;;1.00;1.00;;;26.40;60.90;;;;;;5074107;28;20426;-63
2023/05/28 10:55:48;;;;;;;0.83;0.83;;;26.40;60.90;;;;;;5073417;28;20435;-63
2023/05/28 10:58:24;;;;;;;1.30;1.20;;;26.40;60.90;;;;;;5073614;28;20434;-63
2023/05/28 11:00:53;;;;;;;1.10;1.00;;;26.40;60.90;;;;;;5067379;28;20813;-64
2023/05/28 11:03:39;;;;;;;1.20;1.10;;;26.40;60.90;;;;;;5073928;28;20451;-64
2023/05/28 11:06:08;;;;;;;1.00;1.00;;;26.40;60.90;;;;;;5072830;28;20458;-64
2023/05/28 11:08:45;;;;;;;0.97;0.83;;;26.40;60.90;;;;;;5073069;28;20455;-65
2023/05/28 11:11:14;;;;;;;1.10;1.10;;;26.40;60.90;;;;;;5058591;28;20460;-64
2023/05/28 11:13:46;;;;;;;0.90;0.90;;;26.40;60.90;;;;;;5073533;28;20441;-65
2023/05/28 11:16:16;;;;;;;0.93;0.93;;;26.40;60.90;;;;;;5073854;28;20442;-63
2023/05/28 11:19:02;;;;;;;0.93;0.93;;;26.40;60.90;;;;;;5064931;28;20439;-63
2023/05/28 11:21:32;;;;;;;1.17;1.07;;;26.40;61.00;;;;;;5061854;28;20471;-64
2023/05/28 11:24:03;;;;;;;0.70;0.70;;;26.30;61.00;;;;;;5072104;28;20451;-64
2023/05/28 11:26:32;;;;;;;0.93;0.80;;;26.30;61.00;;;;;;5072865;28;20488;-63
2023/05/28 11:29:02;;;;;;;0.90;0.90;;;26.30;61.10;;;;;;5055977;28;21069;-64
2023/05/28 11:31:39;;;;;;;0.90;0.90;;;26.30;61.10;;;;;;5073216;28;20447;-63
2023/05/28 11:34:08;;;;;;;1.20;1.10;;;26.30;61.20;;;;;;5073042;28;20447;-63
2023/05/28 11:36:40;;;;;;;1.10;1.00;;;26.20;61.20;;;;;;5072782;28;20433;-64
2023/05/28 11:39:10;;;;;;;1.20;1.20;;;26.20;61.30;;;;;;5061806;28;20526;-64
2023/05/28 11:41:39;;;;;;;0.80;0.80;;;26.20;61.30;;;;;;5072665;28;20460;-64
2023/05/28 11:44:20;;;;;;;1.20;1.20;;;26.20;61.30;;;;;;5071815;28;20947;-65
2023/05/28 11:46:51;;;;;;;1.30;1.20;;;26.30;61.20;;;;;;5072155;28;20450;-64
2023/05/28 11:49:20;;;;;;;1.30;1.20;;;26.30;61.20;;;;;;5073081;28;20453;-64
2023/05/28 11:51:50;;;;;;;0.90;0.90;;;26.30;61.10;;;;;;5072450;28;20450;-64
2023/05/28 11:54:20;;;;;;;0.80;0.80;;;26.30;61.10;;;;;;5072117;28;20439;-63
2023/05/28 11:56:51;;;;;;;0.90;0.90;;;26.40;61.10;;;;;;5058412;28;20447;-64
2023/05/28 11:59:21;;;;;;;1.30;1.20;;;26.40;60.90;;;;;;5070281;28;20476;-66
2023/05/28 12:01:49;;;;;;;0.90;0.90;;;26.50;60.80;;;;;;5072650;28;20440;-65
2023/05/28 12:04:23;;;;;;;0.90;0.90;;;26.60;60.60;;;;;;5072390;28;20893;-64
2023/05/28 12:06:52;;;;;;;0.80;0.80;;;26.80;60.40;;;;;;5072188;28;20511;-63
2023/05/28 12:09:21;;;;;;;1.40;1.30;;;26.90;60.10;;;;;;5072229;28;20463;-64
2023/05/28 12:12:03;;;;;;;1.00;1.00;;;27.00;60.10;;;;;;5071774;28;20481;-65
2023/05/28 12:14:32;;;;;;;0.90;0.90;;;27.20;59.70;;;;;;5070712;28;21025;-63
2023/05/28 12:17:10;;;;;;;0.70;0.70;;;27.40;59.10;;;;;;5072208;28;20540;-64
2023/05/28 12:19:38;;;;;;;0.67;0.67;;;27.60;58.80;;;;;;5071945;28;20469;-64
2023/05/28 12:22:14;;;;;;;1.03;0.93;;;27.70;58.50;;;;;;5072097;28;20451;-64
2023/05/28 12:24:50;;;;;;;1.00;1.00;;;27.80;58.30;;;;;;5072437;28;20473;-64
2023/05/28 12:27:19;;;;;;;0.87;0.87;;;27.90;58.00;;;;;;5058886;28;20537;-64
2023/05/28 12:29:47;;;;;;;0.83;0.83;;;28.00;58.00;;;;;;5070974;28;20538;-64
2023/05/28 12:32:15;;;;;;;0.90;0.90;;;28.00;57.90;;;;;;5072454;28;20419;-64
2023/05/28 12:34:44;;;;;;;0.80;0.80;;;27.90;57.90;;;;;;5071860;28;20532;-64
2023/05/28 12:37:12;;;;;;;1.33;0.97;;;27.90;58.00;;;;;;5071315;28;20446;-64
2023/05/28 12:39:40;;;;;;;0.70;0.70;;;27.90;58.10;;;;;;5071473;28;20479;-64
2023/05/28 12:42:10;;;;;;;0.90;0.90;;;27.90;58.20;;;;;;5063000;28;20491;-64
2023/05/28 12:44:38;;;;;;;0.80;0.80;;;27.90;58.10;;;;;;5070455;28;20567;-64
2023/05/28 12:47:07;;;;;;;0.73;0.73;;;27.90;58.10;;;;;;5071513;28;20438;-63
2023/05/28 12:49:35;;;;;;;0.80;0.80;;;27.90;58.10;;;;;;5070824;28;20515;-63
2023/05/28 12:52:03;;;;;;;0.80;0.80;;;27.90;58.10;;;;;;5071200;28;20444;-64
2023/05/28 12:54:33;;;;;;;0.70;0.70;;;27.80;58.20;;;;;;5071226;28;20475;-64
2023/05/28 12:57:02;;;;;;;1.10;1.00;;;27.80;58.20;;;;;;5071310;28;20448;-64
2023/05/28 12:59:32;;;;;;;1.23;1.13;;;27.80;58.30;;;;;;5071165;28;20476;-64
2023/05/28 13:02:00;;;;;;;1.20;1.10;;;27.80;58.30;;;;;;5056361;28;20469;-64
2023/05/28 13:04:28;;;;;;;0.87;0.87;;;27.80;58.40;;;;;;5054260;28;20464;-64
2023/05/28 13:06:57;;;;;;;0.97;0.87;;;27.70;58.40;;;;;;5071196;28;20443;-64
2023/05/28 13:09:25;;;;;;;0.90;0.90;;;27.70;58.50;;;;;;5068023;28;20450;-64
2023/05/28 13:11:53;;;;;;;0.90;0.90;;;27.70;58.50;;;;;;5066413;28;20463;-64